sensor_id;sensor_type;location;lat;lon;timestamp;P1;durP1;ratioP1;P2;durP2;ratioP2
35646;SDS011;28680;45.642;13.756;2022-08-19T00:58:58;5.03;;;2.00;;
35646;SDS011;28680;45.642;13.756;2022-08-19T01:01:24;7.43;;;2.53;;
35646;SDS011;28680;45.642;13.756;2022-08-19T01:03:50;8.70;;;2.70;;
35646;SDS011;28680;45.642;13.756;2022-08-19T01:06:16;8.88;;;2.25;;
35646;SDS011;28680;45.642;13.756;2022-08-19T01:08:42;9.35;;;2.70;;
35646;SDS011;28680;45.642;13.756;2022-08-19T01:11:08;9.80;;;2.78;;
35646;SDS011;28680;45.642;13.756;2022-08-19T01:13:34;10.02;;;2.75;;
35646;SDS011;28680;45.642;13.756;2022-08-19T01:16:05;11.85;;;2.70;;
35646;SDS011;28680;45.642;13.756;2022-08-19T01:18:36;17.83;;;2.90;;
35646;SDS011;28680;45.642;13.756;2022-08-19T01:21:10;16.42;;;3.42;;
35646;SDS011;28680;45.642;13.756;2022-08-19T01:23:45;13.85;;;3.25;;
35646;SDS011;28680;45.642;13.756;2022-08-19T01:26:13;12.20;;;3.33;;
35646;SDS011;28680;45.642;13.756;2022-08-19T01:28:44;25.23;;;5.15;;
35646;SDS011;28680;45.642;13.756;2022-08-19T01:31:13;52.90;;;7.28;;
35646;SDS011;28680;45.642;13.756;2022-08-19T01:33:44;54.80;;;9.70;;
35646;SDS011;28680;45.642;13.756;2022-08-19T01:37:11;43.08;;;8.00;;
35646;SDS011;28680;45.642;13.756;2022-08-19T01:39:44;32.65;;;7.53;;
35646;SDS011;28680;45.642;13.756;2022-08-19T01:42:09;29.67;;;6.90;;
35646;SDS011;28680;45.642;13.756;2022-08-19T01:44:37;22.60;;;6.22;;
35646;SDS011;28680;45.642;13.756;2022-08-19T01:47:08;17.13;;;4.55;;
35646;SDS011;28680;45.642;13.756;2022-08-19T01:49:34;24.35;;;5.22;;
35646;SDS011;28680;45.642;13.756;2022-08-19T01:52:01;29.08;;;5.88;;
35646;SDS011;28680;45.642;13.756;2022-08-19T01:54:29;25.20;;;5.28;;
35646;SDS011;28680;45.642;13.756;2022-08-19T01:57:06;26.88;;;5.22;;
35646;SDS011;28680;45.642;13.756;2022-08-19T01:59:36;19.20;;;5.35;;
35646;SDS011;28680;45.642;13.756;2022-08-19T02:02:03;21.00;;;4.32;;
35646;SDS011;28680;45.642;13.756;2022-08-19T02:04:32;21.98;;;5.15;;
35646;SDS011;28680;45.642;13.756;2022-08-19T02:09:53;18.92;;;4.55;;
35646;SDS011;28680;45.642;13.756;2022-08-19T02:12:20;15.50;;;4.03;;
35646;SDS011;28680;45.642;13.756;2022-08-19T02:14:46;14.70;;;3.90;;
35646;SDS011;28680;45.642;13.756;2022-08-19T02:17:12;19.45;;;4.40;;
35646;SDS011;28680;45.642;13.756;2022-08-19T02:19:38;16.83;;;4.90;;
35646;SDS011;28680;45.642;13.756;2022-08-19T02:22:05;17.08;;;4.43;;
35646;SDS011;28680;45.642;13.756;2022-08-19T02:24:31;20.58;;;4.72;;
35646;SDS011;28680;45.642;13.756;2022-08-19T02:26:57;11.85;;;4.22;;
35646;SDS011;28680;45.642;13.756;2022-08-19T02:29:23;11.02;;;3.30;;
35646;SDS011;28680;45.642;13.756;2022-08-19T02:31:49;12.07;;;3.42;;
35646;SDS011;28680;45.642;13.756;2022-08-19T02:34:16;8.23;;;2.70;;
35646;SDS011;28680;45.642;13.756;2022-08-19T02:36:42;8.15;;;2.92;;
35646;SDS011;28680;45.642;13.756;2022-08-19T02:39:09;8.73;;;3.00;;
35646;SDS011;28680;45.642;13.756;2022-08-19T02:41:35;5.75;;;2.10;;
35646;SDS011;28680;45.642;13.756;2022-08-19T02:44:02;6.78;;;2.80;;
35646;SDS011;28680;45.642;13.756;2022-08-19T02:46:30;6.50;;;2.17;;
35646;SDS011;28680;45.642;13.756;2022-08-19T02:49:01;11.75;;;2.63;;
35646;SDS011;28680;45.642;13.756;2022-08-19T02:51:32;8.60;;;2.10;;
35646;SDS011;28680;45.642;13.756;2022-08-19T02:54:06;9.20;;;2.40;;
35646;SDS011;28680;45.642;13.756;2022-08-19T02:56:34;8.30;;;2.35;;
35646;SDS011;28680;45.642;13.756;2022-08-19T02:59:02;7.57;;;2.05;;
35646;SDS011;28680;45.642;13.756;2022-08-19T03:01:36;8.40;;;2.10;;
35646;SDS011;28680;45.642;13.756;2022-08-19T03:04:05;7.88;;;1.92;;
35646;SDS011;28680;45.642;13.756;2022-08-19T03:06:35;6.82;;;2.17;;
35646;SDS011;28680;45.642;13.756;2022-08-19T03:09:03;11.77;;;1.95;;
35646;SDS011;28680;45.642;13.756;2022-08-19T03:11:30;9.65;;;2.20;;
35646;SDS011;28680;45.642;13.756;2022-08-19T03:13:57;4.53;;;1.98;;
35646;SDS011;28680;45.642;13.756;2022-08-19T03:16:25;5.25;;;1.98;;
35646;SDS011;28680;45.642;13.756;2022-08-19T03:18:56;6.95;;;1.90;;
35646;SDS011;28680;45.642;13.756;2022-08-19T03:21:26;7.18;;;2.00;;
35646;SDS011;28680;45.642;13.756;2022-08-19T03:23:56;7.22;;;2.15;;
35646;SDS011;28680;45.642;13.756;2022-08-19T03:26:25;7.10;;;2.13;;
35646;SDS011;28680;45.642;13.756;2022-08-19T03:28:51;10.52;;;2.45;;
35646;SDS011;28680;45.642;13.756;2022-08-19T03:39:04;5.03;;;1.75;;
35646;SDS011;28680;45.642;13.756;2022-08-19T03:41:31;6.47;;;2.03;;
35646;SDS011;28680;45.642;13.756;2022-08-19T03:55:07;9.68;;;1.70;;
35646;SDS011;28680;45.642;13.756;2022-08-19T03:57:36;10.40;;;2.03;;
35646;SDS011;28680;45.642;13.756;2022-08-19T04:00:03;10.90;;;2.25;;
35646;SDS011;28680;45.642;13.756;2022-08-19T04:02:31;6.95;;;1.98;;
35646;SDS011;28680;45.642;13.756;2022-08-19T04:04:57;8.30;;;2.30;;
35646;SDS011;28680;45.642;13.756;2022-08-19T04:07:23;9.88;;;2.58;;
35646;SDS011;28680;45.642;13.756;2022-08-19T04:09:52;13.80;;;3.20;;
35646;SDS011;28680;45.642;13.756;2022-08-19T04:12:25;30.35;;;5.55;;
35646;SDS011;28680;45.642;13.756;2022-08-19T04:14:57;21.40;;;3.92;;
35646;SDS011;28680;45.642;13.756;2022-08-19T04:17:23;16.48;;;3.20;;
35646;SDS011;28680;45.642;13.756;2022-08-19T04:19:51;13.55;;;3.53;;
35646;SDS011;28680;45.642;13.756;2022-08-19T04:22:17;21.98;;;4.65;;
35646;SDS011;28680;45.642;13.756;2022-08-19T04:24:43;18.60;;;3.75;;
35646;SDS011;28680;45.642;13.756;2022-08-19T04:27:09;19.48;;;3.78;;
35646;SDS011;28680;45.642;13.756;2022-08-19T04:29:35;10.05;;;2.33;;
35646;SDS011;28680;45.642;13.756;2022-08-19T04:32:04;10.30;;;2.65;;
35646;SDS011;28680;45.642;13.756;2022-08-19T04:34:30;11.38;;;2.75;;
35646;SDS011;28680;45.642;13.756;2022-08-19T04:36:59;11.80;;;2.90;;
35646;SDS011;28680;45.642;13.756;2022-08-19T04:39:27;7.25;;;2.00;;
35646;SDS011;28680;45.642;13.756;2022-08-19T04:42:15;6.20;;;1.65;;
35646;SDS011;28680;45.642;13.756;2022-08-19T04:45:01;4.80;;;1.73;;
35646;SDS011;28680;45.642;13.756;2022-08-19T04:47:30;4.32;;;1.67;;
35646;SDS011;28680;45.642;13.756;2022-08-19T04:49:57;7.18;;;1.77;;
35646;SDS011;28680;45.642;13.756;2022-08-19T04:52:23;4.82;;;1.70;;
35646;SDS011;28680;45.642;13.756;2022-08-19T04:54:49;3.47;;;1.02;;
35646;SDS011;28680;45.642;13.756;2022-08-19T04:57:15;5.15;;;1.00;;
35646;SDS011;28680;45.642;13.756;2022-08-19T04:59:41;3.75;;;0.90;;
35646;SDS011;28680;45.642;13.756;2022-08-19T05:02:07;3.95;;;1.15;;
35646;SDS011;28680;45.642;13.756;2022-08-19T05:04:35;4.40;;;0.93;;
35646;SDS011;28680;45.642;13.756;2022-08-19T05:07:04;5.03;;;1.00;;
35646;SDS011;28680;45.642;13.756;2022-08-19T05:09:31;2.72;;;0.90;;
35646;SDS011;28680;45.642;13.756;2022-08-19T05:11:57;5.28;;;2.08;;
35646;SDS011;28680;45.642;13.756;2022-08-19T05:14:22;1.73;;;0.80;;
35646;SDS011;28680;45.642;13.756;2022-08-19T05:16:48;2.47;;;0.90;;
35646;SDS011;28680;45.642;13.756;2022-08-19T05:19:14;2.58;;;0.98;;
35646;SDS011;28680;45.642;13.756;2022-08-19T05:24:44;1.73;;;0.80;;
35646;SDS011;28680;45.642;13.756;2022-08-19T05:27:09;2.80;;;1.08;;
35646;SDS011;28680;45.642;13.756;2022-08-19T05:29:35;2.05;;;0.77;;
35646;SDS011;28680;45.642;13.756;2022-08-19T05:32:02;7.00;;;1.13;;
35646;SDS011;28680;45.642;13.756;2022-08-19T05:34:38;2.72;;;0.77;;
35646;SDS011;28680;45.642;13.756;2022-08-19T05:37:04;4.57;;;0.60;;
35646;SDS011;28680;45.642;13.756;2022-08-19T05:39:33;2.45;;;0.77;;
35646;SDS011;28680;45.642;13.756;2022-08-19T05:42:03;1.83;;;0.60;;
35646;SDS011;28680;45.642;13.756;2022-08-19T05:44:35;2.92;;;0.70;;
35646;SDS011;28680;45.642;13.756;2022-08-19T05:47:15;2.47;;;0.70;;
35646;SDS011;28680;45.642;13.756;2022-08-19T05:49:45;1.65;;;0.63;;
35646;SDS011;28680;45.642;13.756;2022-08-19T06:47:46;5.20;;;1.23;;
35646;SDS011;28680;45.642;13.756;2022-08-19T06:50:13;3.67;;;1.20;;
35646;SDS011;28680;45.642;13.756;2022-08-19T06:52:39;5.68;;;0.93;;
35646;SDS011;28680;45.642;13.756;2022-08-19T06:55:10;2.63;;;0.90;;
35646;SDS011;28680;45.642;13.756;2022-08-19T06:57:36;6.75;;;1.42;;
35646;SDS011;28680;45.642;13.756;2022-08-19T07:00:03;7.32;;;1.30;;
35646;SDS011;28680;45.642;13.756;2022-08-19T07:02:38;4.93;;;1.25;;
35646;SDS011;28680;45.642;13.756;2022-08-19T07:05:06;1.98;;;1.00;;
35646;SDS011;28680;45.642;13.756;2022-08-19T07:07:32;3.47;;;1.10;;
35646;SDS011;28680;45.642;13.756;2022-08-19T07:09:58;4.47;;;1.10;;
35646;SDS011;28680;45.642;13.756;2022-08-19T07:12:25;4.22;;;1.20;;
35646;SDS011;28680;45.642;13.756;2022-08-19T07:14:58;4.10;;;1.13;;
35646;SDS011;28680;45.642;13.756;2022-08-19T07:24:16;6.45;;;1.10;;
35646;SDS011;28680;45.642;13.756;2022-08-19T07:26:42;4.80;;;1.15;;
35646;SDS011;28680;45.642;13.756;2022-08-19T07:29:10;6.47;;;1.35;;
35646;SDS011;28680;45.642;13.756;2022-08-19T07:31:37;6.18;;;1.02;;
35646;SDS011;28680;45.642;13.756;2022-08-19T07:34:04;2.22;;;1.00;;
35646;SDS011;28680;45.642;13.756;2022-08-19T07:36:33;8.27;;;1.52;;
35646;SDS011;28680;45.642;13.756;2022-08-19T07:39:09;5.18;;;1.17;;
35646;SDS011;28680;45.642;13.756;2022-08-19T07:42:01;8.40;;;1.10;;
35646;SDS011;28680;45.642;13.756;2022-08-19T07:44:32;4.00;;;1.23;;
35646;SDS011;28680;45.642;13.756;2022-08-19T07:47:07;4.70;;;1.30;;
35646;SDS011;28680;45.642;13.756;2022-08-19T07:49:33;5.90;;;1.05;;
35646;SDS011;28680;45.642;13.756;2022-08-19T07:52:00;2.95;;;1.10;;
35646;SDS011;28680;45.642;13.756;2022-08-19T07:54:38;3.88;;;1.17;;
35646;SDS011;28680;45.642;13.756;2022-08-19T07:57:07;7.13;;;1.10;;
35646;SDS011;28680;45.642;13.756;2022-08-19T07:59:37;8.60;;;1.30;;
35646;SDS011;28680;45.642;13.756;2022-08-19T08:02:09;4.15;;;1.27;;
35646;SDS011;28680;45.642;13.756;2022-08-19T08:12:54;5.65;;;1.20;;
35646;SDS011;28680;45.642;13.756;2022-08-19T08:22:56;5.78;;;2.08;;
35646;SDS011;28680;45.642;13.756;2022-08-19T08:48:14;9.98;;;2.60;;
35646;SDS011;28680;45.642;13.756;2022-08-19T08:51:11;12.07;;;2.30;;
35646;SDS011;28680;45.642;13.756;2022-08-19T09:11:15;11.85;;;2.70;;
35646;SDS011;28680;45.642;13.756;2022-08-19T10:10:13;23.73;;;4.57;;
35646;SDS011;28680;45.642;13.756;2022-08-19T10:19:58;29.05;;;5.65;;
35646;SDS011;28680;45.642;13.756;2022-08-19T11:03:35;9.40;;;2.05;;
35646;SDS011;28680;45.642;13.756;2022-08-19T11:56:37;12.40;;;5.38;;
35646;SDS011;28680;45.642;13.756;2022-08-19T11:59:07;8.57;;;3.00;;
35646;SDS011;28680;45.642;13.756;2022-08-19T12:01:34;9.82;;;2.63;;
35646;SDS011;28680;45.642;13.756;2022-08-19T12:04:00;10.27;;;2.90;;
35646;SDS011;28680;45.642;13.756;2022-08-19T12:06:30;11.18;;;2.38;;
35646;SDS011;28680;45.642;13.756;2022-08-19T12:09:00;9.70;;;2.30;;
35646;SDS011;28680;45.642;13.756;2022-08-19T12:53:31;9.32;;;2.00;;
35646;SDS011;28680;45.642;13.756;2022-08-19T13:23:42;6.15;;;1.70;;
35646;SDS011;28680;45.642;13.756;2022-08-19T13:26:08;6.90;;;2.00;;
35646;SDS011;28680;45.642;13.756;2022-08-19T13:28:36;9.32;;;2.00;;
35646;SDS011;28680;45.642;13.756;2022-08-19T13:31:22;10.10;;;2.28;;
35646;SDS011;28680;45.642;13.756;2022-08-19T13:34:09;10.02;;;2.40;;
35646;SDS011;28680;45.642;13.756;2022-08-19T13:36:36;6.68;;;1.50;;
35646;SDS011;28680;45.642;13.756;2022-08-19T13:39:03;5.75;;;1.73;;
35646;SDS011;28680;45.642;13.756;2022-08-19T13:48:39;4.10;;;1.30;;
35646;SDS011;28680;45.642;13.756;2022-08-19T13:51:06;9.95;;;1.48;;
35646;SDS011;28680;45.642;13.756;2022-08-19T13:53:36;10.85;;;1.63;;
35646;SDS011;28680;45.642;13.756;2022-08-19T13:56:07;7.25;;;1.40;;
35646;SDS011;28680;45.642;13.756;2022-08-19T13:58:36;5.20;;;1.30;;
35646;SDS011;28680;45.642;13.756;2022-08-19T14:19:46;4.78;;;1.10;;
35646;SDS011;28680;45.642;13.756;2022-08-19T14:46:31;6.30;;;1.50;;
35646;SDS011;28680;45.642;13.756;2022-08-19T14:49:06;9.40;;;1.75;;
35646;SDS011;28680;45.642;13.756;2022-08-19T14:51:35;5.40;;;0.95;;
35646;SDS011;28680;45.642;13.756;2022-08-19T14:54:01;5.15;;;1.10;;
35646;SDS011;28680;45.642;13.756;2022-08-19T15:00:16;4.50;;;1.33;;
35646;SDS011;28680;45.642;13.756;2022-08-19T15:12:00;6.53;;;1.30;;
35646;SDS011;28680;45.642;13.756;2022-08-19T15:17:49;4.63;;;0.98;;
35646;SDS011;28680;45.642;13.756;2022-08-19T15:23:57;8.45;;;1.10;;
35646;SDS011;28680;45.642;13.756;2022-08-19T15:27:33;4.97;;;1.10;;
35646;SDS011;28680;45.642;13.756;2022-08-19T15:33:16;4.28;;;0.77;;
35646;SDS011;28680;45.642;13.756;2022-08-19T15:42:19;3.03;;;0.90;;
35646;SDS011;28680;45.642;13.756;2022-08-19T15:46:14;6.07;;;1.70;;
35646;SDS011;28680;45.642;13.756;2022-08-19T15:54:44;3.45;;;0.90;;
35646;SDS011;28680;45.642;13.756;2022-08-19T15:57:50;1.58;;;0.70;;
35646;SDS011;28680;45.642;13.756;2022-08-19T16:00:40;3.05;;;0.98;;
35646;SDS011;28680;45.642;13.756;2022-08-19T16:03:25;4.32;;;1.00;;
35646;SDS011;28680;45.642;13.756;2022-08-19T16:28:09;2.33;;;0.63;;
35646;SDS011;28680;45.642;13.756;2022-08-19T16:30:48;4.75;;;1.00;;
35646;SDS011;28680;45.642;13.756;2022-08-19T17:05:15;1.75;;;0.80;;
35646;SDS011;28680;45.642;13.756;2022-08-19T17:11:29;3.63;;;0.80;;
35646;SDS011;28680;45.642;13.756;2022-08-19T17:13:58;3.65;;;0.90;;
35646;SDS011;28680;45.642;13.756;2022-08-19T17:16:38;3.60;;;0.88;;
35646;SDS011;28680;45.642;13.756;2022-08-19T17:19:05;2.90;;;0.82;;
35646;SDS011;28680;45.642;13.756;2022-08-19T17:21:33;3.95;;;1.15;;
35646;SDS011;28680;45.642;13.756;2022-08-19T17:24:01;3.92;;;1.00;;
35646;SDS011;28680;45.642;13.756;2022-08-19T17:26:30;2.83;;;0.80;;
35646;SDS011;28680;45.642;13.756;2022-08-19T17:28:56;4.40;;;0.90;;
35646;SDS011;28680;45.642;13.756;2022-08-19T17:31:24;3.35;;;1.00;;
35646;SDS011;28680;45.642;13.756;2022-08-19T17:33:54;2.85;;;1.08;;
35646;SDS011;28680;45.642;13.756;2022-08-19T17:36:23;5.63;;;1.25;;
35646;SDS011;28680;45.642;13.756;2022-08-19T17:38:52;6.07;;;1.33;;
35646;SDS011;28680;45.642;13.756;2022-08-19T17:41:20;2.28;;;0.98;;
35646;SDS011;28680;45.642;13.756;2022-08-19T17:43:51;5.03;;;1.70;;
35646;SDS011;28680;45.642;13.756;2022-08-19T17:46:18;5.85;;;1.20;;
35646;SDS011;28680;45.642;13.756;2022-08-19T17:48:45;4.53;;;1.10;;
35646;SDS011;28680;45.642;13.756;2022-08-19T17:51:16;4.20;;;1.00;;
35646;SDS011;28680;45.642;13.756;2022-08-19T17:54:00;1.58;;;0.80;;
35646;SDS011;28680;45.642;13.756;2022-08-19T21:18:06;3.40;;;1.48;;
35646;SDS011;28680;45.642;13.756;2022-08-19T23:00:16;11.10;;;2.25;;
35646;SDS011;28680;45.642;13.756;2022-08-19T23:06:41;14.70;;;2.55;;
35646;SDS011;28680;45.642;13.756;2022-08-19T23:12:29;4.65;;;2.10;;
35646;SDS011;28680;45.642;13.756;2022-08-19T23:15:15;7.07;;;2.10;;
35646;SDS011;28680;45.642;13.756;2022-08-19T23:17:50;9.50;;;2.13;;
35646;SDS011;28680;45.642;13.756;2022-08-19T23:20:20;5.15;;;2.15;;
35646;SDS011;28680;45.642;13.756;2022-08-19T23:23:53;5.72;;;2.38;;
35646;SDS011;28680;45.642;13.756;2022-08-19T23:36:27;10.02;;;2.40;;
